Time;durP1;ratioP1;P1;durP2;ratioP2;P2;SDS_P1;SDS_P2;PMS_P1;PMS_P2;Temp;Humidity;BMP_temperature;BMP_pressure;BME280_temperature;BME280_humidity;BME280_pressure;Samples;Min_cycle;Max_cycle;Signal;HPM_P1;HPM_P2
2023/08/29 00:00:20;;;;;;;11.43;8.68;;;;;;;12.30;100.00;101245.09;5060972;28;20107;-73
2023/08/29 00:02:45;;;;;;;12.57;8.52;;;;;;;12.29;100.00;101238.13;5066473;28;20074;-73
2023/08/29 00:05:12;;;;;;;10.65;8.68;;;;;;;12.25;100.00;101249.56;5063456;28;20154;-73
2023/08/29 00:07:38;;;;;;;10.18;8.73;;;;;;;12.18;100.00;101242.75;5066285;28;20029;-73
2023/08/29 00:10:04;;;;;;;10.85;8.15;;;;;;;12.17;100.00;101235.81;5065379;28;20036;-73
2023/08/29 00:12:29;;;;;;;15.05;8.73;;;;;;;12.17;100.00;101236.69;5064735;28;20029;-73
2023/08/29 00:14:56;;;;;;;9.43;8.52;;;;;;;12.16;100.00;101249.75;5065345;28;20029;-73
2023/08/29 00:17:22;;;;;;;10.70;8.75;;;;;;;12.11;100.00;101242.03;5059309;28;20025;-73
2023/08/29 00:19:48;;;;;;;10.30;8.82;;;;;;;12.08;100.00;101241.25;5054027;28;20056;-73
2023/08/29 00:22:13;;;;;;;11.60;9.23;;;;;;;12.08;100.00;101241.25;5056935;28;20484;-73
2023/08/29 00:24:38;;;;;;;11.63;9.25;;;;;;;11.98;100.00;101227.56;5065152;28;20105;-73
2023/08/29 00:27:04;;;;;;;11.70;9.35;;;;;;;12.00;100.00;101224.88;5064456;28;20459;-73
2023/08/29 00:29:29;;;;;;;9.93;8.93;;;;;;;11.87;100.00;101206.00;5062838;28;20044;-73
2023/08/29 00:31:55;;;;;;;10.85;9.65;;;;;;;11.98;100.00;101219.72;5066361;28;20116;-73
2023/08/29 00:34:20;;;;;;;13.32;10.18;;;;;;;11.95;100.00;101220.63;5066631;28;20155;-73
2023/08/29 00:36:45;;;;;;;11.43;8.95;;;;;;;11.91;100.00;101224.22;5066090;28;20118;-73
2023/08/29 00:39:10;;;;;;;10.35;8.95;;;;;;;11.90;100.00;101227.72;5066048;28;20069;-73
2023/08/29 00:41:36;;;;;;;9.80;8.80;;;;;;;11.87;100.00;101227.81;5062796;28;20035;-73
2023/08/29 00:44:01;;;;;;;11.90;9.27;;;;;;;11.87;100.00;101222.56;5064979;28;20040;-73
2023/08/29 00:46:27;;;;;;;10.65;9.23;;;;;;;11.79;100.00;101218.38;5062479;28;20028;-73
2023/08/29 00:48:54;;;;;;;12.65;10.32;;;;;;;11.82;100.00;101218.31;5062178;28;20059;-73
2023/08/29 00:51:19;;;;;;;12.52;9.70;;;;;;;11.79;100.00;101213.16;5067594;28;20020;-73
2023/08/29 00:53:45;;;;;;;11.20;9.55;;;;;;;11.75;100.00;101214.97;5061703;28;20467;-73
2023/08/29 00:56:17;;;;;;;13.30;9.25;;;;;;;11.77;100.00;101220.16;5070497;28;20024;-73
2023/08/29 00:58:43;;;;;;;11.45;10.18;;;;;;;11.76;100.00;101216.69;5071322;28;20391;-73
2023/08/29 01:01:09;;;;;;;11.48;10.13;;;;;;;11.77;100.00;101225.38;5069977;28;20028;-73
2023/08/29 01:03:35;;;;;;;11.45;9.68;;;;;;;11.75;100.00;101217.59;5073450;28;20037;-73
2023/08/29 01:06:00;;;;;;;11.98;10.27;;;;;;;11.73;100.00;101219.38;5071745;28;20509;-73
2023/08/29 01:08:25;;;;;;;12.77;10.38;;;;;;;11.68;100.00;101205.56;5071026;28;20060;-73
2023/08/29 01:11:42;;;;;;;13.38;10.20;;;;;;;11.69;100.00;101207.28;5068750;28;20052;-73
2023/08/29 01:14:53;;;;;;;11.48;10.18;;;;;;;11.63;100.00;101207.41;5048404;28;20485;-73
2023/08/29 01:17:28;;;;;;;13.32;10.70;;;;;;;11.63;100.00;101213.47;5046349;28;20047;-73
2023/08/29 01:19:54;;;;;;;13.88;10.13;;;;;;;11.61;100.00;101217.03;5059967;28;20068;-73
2023/08/29 01:22:35;;;;;;;14.75;10.50;;;;;;;11.62;100.00;101221.38;5062811;28;20068;-73
2023/08/29 01:25:17;;;;;;;13.57;9.85;;;;;;;11.61;100.00;101217.03;5056428;28;20075;-74
2023/08/29 01:27:44;;;;;;;13.02;10.75;;;;;;;11.58;100.00;101215.34;5069314;28;20024;-74
2023/08/29 01:30:10;;;;;;;15.13;10.35;;;;;;;11.54;100.00;101211.06;5072549;28;20078;-73
2023/08/29 01:32:37;;;;;;;13.75;9.95;;;;;;;11.55;100.00;101219.78;5065394;28;20035;-74
2023/08/29 01:35:03;;;;;;;14.25;10.50;;;;;;;11.51;100.00;101224.22;5071811;28;20100;-74
2023/08/29 01:37:28;;;;;;;15.05;10.93;;;;;;;11.50;100.00;101214.63;5062659;28;20028;-74
2023/08/29 01:39:54;;;;;;;11.95;10.50;;;;;;;11.50;100.00;101214.63;5072313;28;20391;-74
2023/08/29 01:42:19;;;;;;;13.90;10.50;;;;;;;11.51;100.00;101223.31;5069628;28;20036;-73
2023/08/29 01:44:44;;;;;;;12.60;10.57;;;;;;;11.47;100.00;101222.53;5070962;28;20020;-74
2023/08/29 01:47:10;;;;;;;15.68;10.70;;;;;;;11.47;100.00;101226.00;5069021;28;20041;-74
2023/08/29 01:49:36;;;;;;;14.65;10.75;;;;;;;11.43;100.00;101213.06;5071583;28;20028;-73
2023/08/29 01:52:01;;;;;;;13.82;9.85;;;;;;;11.41;100.00;101218.31;5070866;28;20487;-73
2023/08/29 01:54:27;;;;;;;14.95;11.57;;;;;;;11.32;100.00;101212.44;5069343;28;20035;-73
2023/08/29 01:56:55;;;;;;;15.55;10.55;;;;;;;11.34;100.00;101215.84;5072892;28;20103;-73
2023/08/29 01:59:21;;;;;;;16.75;10.90;;;;;;;11.35;100.00;101231.50;5065664;28;20075;-74
2023/08/29 02:01:47;;;;;;;13.98;10.27;;;;;;;11.27;100.00;101233.38;5060814;28;20083;-73
2023/08/29 02:04:12;;;;;;;12.73;11.02;;;;;;;11.28;100.00;101237.75;5068730;28;20472;-73
2023/08/29 02:06:37;;;;;;;14.05;10.93;;;;;;;11.28;100.00;101240.34;5061534;28;20408;-73
2023/08/29 02:09:03;;;;;;;13.07;11.00;;;;;;;11.28;100.00;101237.75;5067841;28;20479;-73
2023/08/29 02:11:28;;;;;;;13.40;10.73;;;;;;;11.27;100.00;101233.38;5064193;28;20051;-73
2023/08/29 02:13:54;;;;;;;15.85;11.20;;;;;;;11.25;100.00;101243.88;5067051;28;20031;-73
2023/08/29 02:16:19;;;;;;;14.65;11.00;;;;;;;11.26;100.00;101236.91;5066622;28;20379;-73
2023/08/29 02:18:44;;;;;;;15.68;11.48;;;;;;;11.24;100.00;101231.69;5065241;28;20642;-73
2023/08/29 02:21:10;;;;;;;13.38;11.07;;;;;;;11.19;100.00;101236.16;5060053;28;20037;-73
2023/08/29 02:23:35;;;;;;;15.23;11.15;;;;;;;11.19;100.00;101241.38;5066957;28;20027;-73
2023/08/29 02:26:02;;;;;;;14.23;10.88;;;;;;;11.21;100.00;101246.56;5067909;28;20030;-73
2023/08/29 02:28:27;;;;;;;14.70;10.90;;;;;;;11.16;100.00;101253.63;5071983;28;20104;-73
2023/08/29 02:30:53;;;;;;;15.48;11.43;;;;;;;11.17;100.00;101256.19;5067663;28;20471;-73
2023/08/29 02:33:18;;;;;;;15.05;11.52;;;;;;;11.14;100.00;101253.66;5058998;28;20054;-73
2023/08/29 02:35:44;;;;;;;14.25;10.90;;;;;;;11.15;100.00;101263.22;5063892;28;20028;-73
2023/08/29 02:38:09;;;;;;;16.08;10.77;;;;;;;11.14;100.00;101266.69;5065512;28;20387;-73
2023/08/29 02:40:35;;;;;;;13.57;11.20;;;;;;;11.15;100.00;101270.16;5063750;28;20510;-73
2023/08/29 02:43:00;;;;;;;13.35;11.27;;;;;;;11.15;100.00;101275.38;5069435;28;20016;-73
2023/08/29 02:45:25;;;;;;;15.98;11.50;;;;;;;11.02;100.00;101254.75;5055299;28;20239;-73
2023/08/29 02:47:51;;;;;;;14.25;10.98;;;;;;;11.12;100.00;101278.06;5064213;28;20484;-73
2023/08/29 02:50:16;;;;;;;12.48;10.60;;;;;;;11.09;100.00;101280.75;5066223;28;20029;-73
2023/08/29 02:52:41;;;;;;;13.13;10.57;;;;;;;10.98;100.00;101275.69;5065847;28;20024;-73
2023/08/29 02:55:07;;;;;;;13.40;10.73;;;;;;;10.98;100.00;101270.47;5069288;28;20379;-73
2023/08/29 02:57:32;;;;;;;14.35;11.75;;;;;;;10.94;100.00;101267.06;5067606;28;20031;-73
2023/08/29 02:59:58;;;;;;;12.43;10.63;;;;;;;10.90;100.00;101267.16;5071605;28;20029;-73
2023/08/29 03:02:23;;;;;;;12.23;10.18;;;;;;;10.85;100.00;101268.97;5070220;28;20037;-73
2023/08/29 03:04:48;;;;;;;14.02;10.65;;;;;;;10.73;100.00;101257.03;5069579;28;20056;-73
2023/08/29 03:07:14;;;;;;;14.90;9.65;;;;;;;10.68;100.00;101254.50;5070537;28;20472;-73
2023/08/29 03:09:39;;;;;;;12.77;10.00;;;;;;;10.75;100.00;101279.56;5062264;28;20024;-73
2023/08/29 03:12:05;;;;;;;11.38;9.43;;;;;;;10.75;100.00;101276.09;5071890;28;20074;-73
2023/08/29 03:14:30;;;;;;;13.82;9.90;;;;;;;10.76;100.00;101275.25;5062688;28;20033;-74
2023/08/29 03:16:55;;;;;;;11.55;10.02;;;;;;;10.71;100.00;101272.69;5060283;28;20063;-73
2023/08/29 03:19:21;;;;;;;13.25;10.00;;;;;;;10.73;100.00;101270.94;5069221;28;20062;-73
2023/08/29 03:21:46;;;;;;;13.15;10.07;;;;;;;10.74;100.00;101271.78;5068659;28;20483;-73
2023/08/29 03:24:11;;;;;;;14.25;9.98;;;;;;;10.74;100.00;101277.00;5072068;28;20060;-73
2023/08/29 03:26:37;;;;;;;12.57;10.43;;;;;;;10.76;100.00;101281.31;5068537;28;20482;-74
2023/08/29 03:29:02;;;;;;;12.27;9.70;;;;;;;10.74;100.00;101272.63;5071028;28;20024;-73
2023/08/29 03:31:28;;;;;;;12.23;10.15;;;;;;;10.73;100.00;101275.28;5071777;28;20108;-73
2023/08/29 03:33:54;;;;;;;16.52;9.80;;;;;;;10.61;100.00;101249.41;5075259;28;20032;-73
2023/08/29 03:36:20;;;;;;;18.92;10.05;;;;;;;10.69;100.00;101265.78;5065437;28;20033;-73
2023/08/29 03:38:46;;;;;;;13.15;10.10;;;;;;;10.63;100.00;101258.94;5073339;28;20021;-73
2023/08/29 03:41:11;;;;;;;13.90;10.18;;;;;;;10.61;100.00;101262.44;5072413;28;20028;-73
2023/08/29 03:43:37;;;;;;;11.23;9.25;;;;;;;10.57;100.00;101251.22;5073909;28;20103;-73
2023/08/29 03:46:06;;;;;;;15.20;9.85;;;;;;;10.62;100.00;101251.13;5072621;28;20402;-73
2023/08/29 03:48:35;;;;;;;14.23;9.65;;;;;;;10.61;100.00;101246.81;5074018;28;20388;-73
2023/08/29 03:51:10;;;;;;;15.15;10.10;;;;;;;10.59;100.00;101245.97;5070180;28;20384;-73
2023/08/29 03:53:36;;;;;;;13.52;9.60;;;;;;;10.51;100.00;101226.09;5069576;28;20020;-73
2023/08/29 03:56:03;;;;;;;17.42;11.07;;;;;;;10.50;100.00;101218.31;5071387;28;20031;-73
2023/08/29 03:58:29;;;;;;;16.98;11.50;;;;;;;10.49;100.00;101225.25;5073580;28;20024;-73
2023/08/29 04:00:55;;;;;;;17.40;11.35;;;;;;;10.46;100.00;101227.94;5068351;28;20025;-73
2023/08/29 04:03:21;;;;;;;14.95;10.45;;;;;;;10.47;100.00;101224.44;5061926;28;20076;-74
2023/08/29 04:05:46;;;;;;;18.05;10.90;;;;;;;10.46;100.00;101227.06;5061889;28;20032;-73
2023/08/29 04:08:12;;;;;;;16.65;10.45;;;;;;;10.47;100.00;101232.25;5065038;28;20138;-73
2023/08/29 04:10:39;;;;;;;15.65;11.23;;;;;;;10.44;100.00;101227.09;5070035;28;20116;-73
2023/08/29 04:13:05;;;;;;;14.90;10.55;;;;;;;10.41;100.00;101228.91;5066688;28;20032;-73
2023/08/29 04:15:31;;;;;;;16.27;10.05;;;;;;;10.34;100.00;101220.31;5072252;28;20025;-73
2023/08/29 04:17:56;;;;;;;17.55;10.15;;;;;;;10.34;100.00;101219.47;5068591;28;20036;-73
2023/08/29 04:20:22;;;;;;;15.65;10.65;;;;;;;10.26;100.00;101207.41;5074586;28;20024;-73
2023/08/29 04:22:48;;;;;;;14.15;10.15;;;;;;;10.24;100.00;101211.75;5070681;28;20024;-73
2023/08/29 04:25:13;;;;;;;14.15;9.95;;;;;;;10.26;100.00;101216.97;5061562;28;20550;-73
2023/08/29 04:27:40;;;;;;;14.40;10.25;;;;;;;10.26;100.00;101220.44;5073050;28;20468;-73
2023/08/29 04:30:06;;;;;;;13.38;10.68;;;;;;;10.30;100.00;101214.31;5071850;28;20027;-73
2023/08/29 04:32:34;;;;;;;13.48;10.00;;;;;;;10.26;100.00;101206.53;5073223;28;20486;-73
2023/08/29 04:35:00;;;;;;;14.57;10.70;;;;;;;10.23;100.00;101212.63;5071375;28;20021;-73
2023/08/29 04:37:25;;;;;;;12.15;9.13;;;;;;;10.17;100.00;101204.94;5068419;28;20537;-73
2023/08/29 04:39:50;;;;;;;12.07;9.27;;;;;;;10.17;100.00;101207.53;5071428;28;20029;-73
2023/08/29 04:42:16;;;;;;;11.50;9.88;;;;;;;10.18;100.00;101205.78;5060020;28;20024;-73
2023/08/29 04:44:41;;;;;;;12.80;9.82;;;;;;;10.18;100.00;101204.03;5070679;28;20082;-73
2023/08/29 04:47:06;;;;;;;13.45;10.07;;;;;;;10.15;100.00;101187.59;5069396;28;20041;-73
2023/08/29 04:49:33;;;;;;;16.02;10.63;;;;;;;10.17;100.00;101196.22;5074173;28;20032;-73
2023/08/29 04:51:58;;;;;;;13.88;10.13;;;;;;;10.14;100.00;101193.69;5069931;28;20025;-73
2023/08/29 04:54:24;;;;;;;12.82;9.75;;;;;;;10.18;100.00;101200.56;5073556;28;20057;-73
2023/08/29 04:56:49;;;;;;;12.70;9.70;;;;;;;10.14;100.00;101197.16;5070150;28;20028;-73
2023/08/29 04:59:15;;;;;;;12.13;9.00;;;;;;;10.14;100.00;101202.38;5072746;28;20029;-73
2023/08/29 05:01:40;;;;;;;13.00;10.13;;;;;;;10.20;100.00;101210.09;5072437;28;20024;-73
2023/08/29 05:04:05;;;;;;;13.88;10.23;;;;;;;10.16;100.00;101207.53;5072339;28;20039;-73
2023/08/29 05:06:31;;;;;;;14.35;10.52;;;;;;;10.22;100.00;101205.69;5072220;28;20029;-73
2023/08/29 05:08:56;;;;;;;13.10;10.90;;;;;;;10.24;100.00;101209.16;5068083;28;20376;-73
2023/08/29 05:11:21;;;;;;;15.32;11.13;;;;;;;10.30;100.00;101203.03;5071073;28;20066;-73
2023/08/29 05:13:47;;;;;;;16.15;10.40;;;;;;;10.31;100.00;101200.38;5068315;28;20103;-73
2023/08/29 05:16:12;;;;;;;15.80;11.15;;;;;;;10.42;100.00;101210.63;5068210;28;20392;-73
2023/08/29 05:18:37;;;;;;;14.93;11.27;;;;;;;10.49;100.00;101204.41;5067845;28;20035;-73
2023/08/29 05:21:03;;;;;;;16.13;12.05;;;;;;;10.52;100.00;101198.28;5070551;28;20090;-73
2023/08/29 05:23:29;;;;;;;14.30;11.05;;;;;;;10.60;100.00;101203.38;5067528;28;20104;-73
2023/08/29 05:25:56;;;;;;;15.13;11.30;;;;;;;10.63;100.00;101204.19;5065847;28;20052;-73
2023/08/29 05:28:21;;;;;;;16.27;12.05;;;;;;;10.67;100.00;101198.03;5063675;28;20083;-73
2023/08/29 05:30:47;;;;;;;19.15;12.57;;;;;;;10.78;100.00;101200.41;5062551;28;20511;-73
2023/08/29 05:33:12;;;;;;;14.32;11.52;;;;;;;10.87;100.00;101205.47;5062229;28;20452;-73
2023/08/29 05:35:37;;;;;;;17.02;12.48;;;;;;;10.90;100.00;101205.41;5068498;28;20123;-73
2023/08/29 05:38:03;;;;;;;15.85;11.63;;;;;;;11.01;100.00;101211.28;5067479;28;20041;-73
2023/08/29 05:40:28;;;;;;;17.30;12.80;;;;;;;11.03;100.00;101203.44;5066592;28;20056;-73
2023/08/29 05:42:54;;;;;;;15.93;13.00;;;;;;;11.06;100.00;101192.09;5058347;28;20093;-73
2023/08/29 05:45:19;;;;;;;20.92;12.80;;;;;;;11.17;100.00;101208.38;5052230;28;20040;-73
2023/08/29 05:47:44;;;;;;;16.50;12.35;;;;;;;11.22;100.00;101201.31;5050290;28;20050;-73
2023/08/29 05:50:10;;;;;;;18.50;12.50;;;;;;;11.23;100.00;101205.63;5054778;28;20028;-73
2023/08/29 05:52:35;;;;;;;15.85;12.52;;;;;;;11.28;100.00;101201.19;5066289;28;20029;-73
2023/08/29 05:55:00;;;;;;;16.05;12.15;;;;;;;11.36;100.00;101208.88;5060773;28;20117;-73
2023/08/29 05:57:26;;;;;;;17.65;12.38;;;;;;;11.38;100.00;101207.94;5069885;28;20021;-73
2023/08/29 05:59:53;;;;;;;15.07;11.98;;;;;;;11.45;100.00;101212.13;5061846;28;20032;-73
2023/08/29 06:02:19;;;;;;;19.00;12.90;;;;;;;11.50;100.00;101206.81;5063201;28;20082;-73
2023/08/29 06:04:44;;;;;;;14.32;11.93;;;;;;;11.49;100.00;101208.56;5069356;28;20119;-73
2023/08/29 06:07:10;;;;;;;17.25;12.52;;;;;;;11.60;100.00;101216.16;5072410;28;20032;-73
2023/08/29 06:09:36;;;;;;;15.00;12.57;;;;;;;11.66;100.00;101209.94;5060203;28;20379;-73
2023/08/29 06:12:01;;;;;;;15.57;12.70;;;;;;;11.73;100.00;101207.16;5063760;28;20032;-73
2023/08/29 06:14:26;;;;;;;18.33;13.10;;;;;;;11.79;100.00;101197.47;5063568;28;20029;-73
2023/08/29 06:16:52;;;;;;;16.95;13.43;;;;;;;11.80;100.00;101179.16;5063204;28;20534;-73
2023/08/29 06:19:17;;;;;;;19.27;13.82;;;;;;;11.93;100.00;101198.94;5060277;28;20029;-73
2023/08/29 06:21:43;;;;;;;19.75;14.43;;;;;;;12.07;100.00;101216.03;5072359;28;20032;-73
2023/08/29 06:24:08;;;;;;;17.23;14.02;;;;;;;12.10;100.00;101205.50;5071222;28;20028;-73
2023/08/29 06:26:34;;;;;;;21.25;14.93;;;;;;;12.14;100.00;101191.47;5060515;28;20073;-73
2023/08/29 06:28:59;;;;;;;19.45;15.27;;;;;;;12.27;100.00;101202.47;5068303;28;20037;-73
2023/08/29 06:31:25;;;;;;;23.75;15.63;;;;;;;12.28;100.00;101194.59;5058417;28;20048;-74
2023/08/29 06:33:50;;;;;;;21.15;15.15;;;;;;;12.34;100.00;101198.81;5068774;28;20040;-72
2023/08/29 06:36:15;;;;;;;22.10;15.30;;;;;;;12.48;100.00;101208.91;5058635;28;20056;-73
2023/08/29 06:38:42;;;;;;;21.20;15.15;;;;;;;12.58;100.00;101202.53;5062328;28;20368;-73
2023/08/29 06:41:08;;;;;;;21.77;14.98;;;;;;;12.65;100.00;101198.88;5067008;28;20029;-74
2023/08/29 06:43:33;;;;;;;19.42;15.25;;;;;;;12.78;100.00;101200.25;5061695;28;20419;-74
2023/08/29 06:45:59;;;;;;;18.17;13.80;;;;;;;12.94;100.00;101192.84;5064903;28;20021;-73
2023/08/29 06:48:24;;;;;;;17.58;15.05;;;;;;;13.09;100.00;101196.81;5066771;28;20090;-73
2023/08/29 06:50:49;;;;;;;16.70;14.05;;;;;;;13.22;100.00;101203.41;5068999;28;20025;-74
2023/08/29 06:53:14;;;;;;;20.58;14.70;;;;;;;13.36;100.00;101197.81;5071443;28;20024;-73
2023/08/29 06:55:40;;;;;;;20.40;15.25;;;;;;;13.49;100.00;101203.53;5061775;28;20086;-74
2023/08/29 06:58:05;;;;;;;18.40;14.38;;;;;;;13.56;100.00;101207.69;5053334;28;20071;-74
2023/08/29 07:00:31;;;;;;;21.30;14.65;;;;;;;13.66;100.00;101206.50;5059125;28;20036;-74
2023/08/29 07:02:57;;;;;;;15.27;12.98;;;;;;;13.76;100.00;101207.06;5064268;28;20103;-82
2023/08/29 07:05:23;;;;;;;19.45;14.13;;;;;;;13.81;100.00;101192.09;5070020;28;20037;-73
2023/08/29 07:07:49;;;;;;;19.90;14.25;;;;;;;13.98;100.00;101202.03;5064776;28;20062;-74
2023/08/29 07:10:14;;;;;;;14.98;13.38;;;;;;;14.05;100.00;101204.41;5067367;28;20112;-74
2023/08/29 07:12:39;;;;;;;16.02;13.25;;;;;;;14.15;100.00;101207.59;5067630;28;20530;-74
2023/08/29 07:15:05;;;;;;;15.73;12.80;;;;;;;14.24;100.00;101203.81;5071879;28;20379;-75
2023/08/29 07:17:31;;;;;;;15.05;12.82;;;;;;;14.31;100.00;101213.19;5060777;28;20055;-74
2023/08/29 07:19:56;;;;;;;17.02;13.00;;;;;;;14.33;100.00;101200.03;5067755;28;20496;-74
2023/08/29 07:22:22;;;;;;;13.85;12.02;;;;;;;14.35;100.00;101206.91;5074894;28;20039;-74
2023/08/29 07:24:47;;;;;;;15.48;11.77;;;;;;;14.40;100.00;101206.78;5067896;28;20020;-74
2023/08/29 07:27:13;;;;;;;17.30;11.82;;;;;;;14.45;100.00;101210.09;5074422;28;20112;-74
2023/08/29 07:29:38;;;;;;;14.98;11.82;;;;;;;14.52;100.00;101209.88;5071053;28;20051;-74
2023/08/29 07:32:04;;;;;;;16.48;11.07;;;;;;;14.61;100.00;101211.31;5069721;28;20392;-74
2023/08/29 07:34:29;;;;;;;13.77;11.70;;;;;;;14.62;100.00;101205.19;5065855;28;20079;-74
2023/08/29 07:36:54;;;;;;;13.40;11.50;;;;;;;14.74;100.00;101212.59;5069803;28;20024;-74
2023/08/29 07:39:20;;;;;;;17.17;11.80;;;;;;;14.80;100.00;101215.94;5075326;28;20032;-74
2023/08/29 07:41:46;;;;;;;14.75;11.18;;;;;;;14.82;100.00;101216.75;5070332;28;20028;-74
2023/08/29 07:44:12;;;;;;;12.82;11.27;;;;;;;14.99;100.00;101219.63;5057068;28;20116;-74
2023/08/29 07:46:37;;;;;;;14.00;10.82;;;;;;;15.17;100.00;101212.84;5058023;28;20112;-75
2023/08/29 07:49:09;;;;;;;14.68;10.80;;;;;;;15.36;100.00;101221.75;5068407;28;20076;-74
2023/08/29 07:51:35;;;;;;;12.82;11.40;;;;;;;15.51;100.00;101219.50;5059653;28;20032;-74
2023/08/29 07:54:00;;;;;;;16.83;11.60;;;;;;;15.60;100.00;101220.00;5062373;28;20033;-74
2023/08/29 07:56:26;;;;;;;14.25;11.25;;;;;;;15.70;100.00;101214.44;5057540;28;20090;-74
2023/08/29 07:58:51;;;;;;;12.20;10.90;;;;;;;15.76;100.00;101219.41;5073665;28;20029;-74
2023/08/29 08:01:17;;;;;;;14.88;10.82;;;;;;;15.84;100.00;101212.09;5063223;28;20080;-74
2023/08/29 08:03:43;;;;;;;11.90;10.50;;;;;;;15.93;100.00;101198.59;5061738;28;20025;-74
2023/08/29 08:06:08;;;;;;;24.58;10.88;;;;;;;16.02;100.00;101211.38;5070834;28;20028;-74
2023/08/29 08:08:33;;;;;;;12.40;10.30;;;;;;;16.13;100.00;101208.31;5057340;28;20041;-74
2023/08/29 08:10:59;;;;;;;10.52;8.75;;;;;;;16.18;100.00;101202.84;5062902;28;20029;-74
2023/08/29 08:13:24;;;;;;;10.93;8.80;;;;;;;16.18;100.00;101203.69;5064759;28;20028;-79
2023/08/29 08:15:49;;;;;;;8.23;7.20;;;;;;;16.27;100.00;101215.63;5060561;28;20052;-78
2023/08/29 08:18:15;;;;;;;8.25;6.45;;;;;;;16.33;100.00;101213.59;5062071;28;20073;-77
2023/08/29 08:20:40;;;;;;;9.63;7.20;;;;;;;16.33;100.00;101210.97;5067262;28;20051;-74
2023/08/29 08:23:08;;;;;;;13.07;7.80;;;;;;;16.38;100.00;101216.03;5069026;28;20032;-79
2023/08/29 08:25:34;;;;;;;9.35;6.35;;;;;;;16.43;100.00;101214.06;5071887;28;20036;-80
2023/08/29 08:27:59;;;;;;;6.38;5.25;;;;;;;16.48;100.00;101217.38;5068544;28;20045;-80
2023/08/29 08:30:24;;;;;;;8.00;5.45;;;;;;;16.59;100.00;101204.59;5070559;28;20036;-79
2023/08/29 08:32:49;;;;;;;8.60;5.95;;;;;;;16.67;100.00;101203.41;5060814;28;20151;-78
2023/08/29 08:35:15;;;;;;;8.32;6.05;;;;;;;16.85;100.00;101210.56;5055518;28;20111;-75
2023/08/29 08:37:40;;;;;;;63.83;14.77;;;;;;;17.11;100.00;101213.81;5067076;28;20071;-75
2023/08/29 08:40:09;;;;;;;125.55;20.77;;;;;;;17.21;100.00;101204.59;5063694;28;20031;-75
2023/08/29 08:42:37;;;;;;;296.95;42.83;;;;;;;17.46;100.00;101215.72;5066579;28;20037;-75
2023/08/29 08:45:05;;;;;;;348.75;54.60;;;;;;;17.70;100.00;101218.13;5060038;28;20032;-76
2023/08/29 08:47:32;;;;;;;10.45;4.68;;;;;;;17.72;100.00;101214.50;5072434;28;20072;-75
2023/08/29 08:49:57;;;;;;;5.40;4.60;;;;;;;17.80;100.00;101214.16;5064514;28;20033;-77
2023/08/29 08:52:23;;;;;;;6.45;5.00;;;;;;;17.94;100.00;101211.69;5062933;28;20741;-79
2023/08/29 08:54:48;;;;;;;18.13;6.28;;;;;;;17.97;100.00;101206.28;5070387;28;20373;-79
2023/08/29 08:57:14;;;;;;;4.80;4.22;;;;;;;18.00;100.00;101205.28;5060995;28;20383;-79
2023/08/29 08:59:41;;;;;;;7.97;4.43;;;;;;;17.94;100.00;101210.84;5067236;28;20028;-78
2023/08/29 09:02:12;;;;;;;5.80;4.60;;;;;;;17.89;100.00;101211.09;5068582;28;20029;-83
2023/08/29 09:04:37;;;;;;;7.25;4.53;;;;;;;17.84;100.00;101205.16;5065522;28;20032;-77
2023/08/29 09:07:03;;;;;;;10.48;4.72;;;;;;;17.81;100.00;101209.72;5069272;28;20067;-79
2023/08/29 09:09:28;;;;;;;5.38;4.88;;;;;;;17.73;100.00;101196.88;5065481;28;20108;-78
2023/08/29 09:11:55;;;;;;;4.93;4.05;;;;;;;17.74;100.00;101212.63;5062039;28;20103;-77
2023/08/29 09:14:22;;;;;;;4.90;3.80;;;;;;;17.81;100.00;101210.59;5056699;28;20033;-76
2023/08/29 09:16:56;;;;;;;4.72;4.28;;;;;;;17.85;100.00;101211.28;5066028;28;20025;-79
2023/08/29 09:19:23;;;;;;;5.53;4.40;;;;;;;17.97;100.00;101216.81;5059174;28;20033;-76
2023/08/29 09:21:49;;;;;;;5.15;4.10;;;;;;;18.07;100.00;101211.09;5058031;28;20090;-76
2023/08/29 09:24:22;;;;;;;6.25;3.78;;;;;;;18.26;100.00;101198.72;5057812;28;20426;-77
2023/08/29 09:26:47;;;;;;;5.63;4.05;;;;;;;18.50;100.00;101215.09;5055637;28;20032;-75
2023/08/29 09:29:20;;;;;;;4.63;3.45;;;;;;;18.71;100.00;101219.28;5048501;28;20033;-76
2023/08/29 09:31:47;;;;;;;4.57;3.10;;;;;;;18.82;100.00;101213.47;5071453;28;20020;-75
2023/08/29 09:34:42;;;;;;;3.50;3.10;;;;;;;18.98;100.00;101217.97;5067908;28;20025;-76
2023/08/29 09:37:07;;;;;;;5.90;3.40;;;;;;;19.07;100.00;101214.84;5062265;28;20044;-75
2023/08/29 09:39:33;;;;;;;5.88;3.00;;;;;;;19.23;100.00;101220.16;5057780;28;20013;-74
2023/08/29 09:42:00;;;;;;;3.83;3.35;;;;;;;19.23;100.00;101218.38;5066267;28;20067;-74
2023/08/29 09:44:26;;;;;;;3.05;2.60;;;;;;;19.14;100.00;101222.38;5066242;28;20021;-74
2023/08/29 09:46:51;;;;;;;3.72;2.70;;;;;;;19.18;100.00;101212.47;5064131;28;20029;-75
2023/08/29 09:49:17;;;;;;;3.50;2.22;;;;;;;19.03;100.00;101210.63;5061145;28;20025;-75
2023/08/29 09:51:43;;;;;;;3.50;2.13;;;;;;;18.85;100.00;101201.91;5058962;28;20102;-75
2023/08/29 09:54:12;;;;;;;2.92;2.20;;;;;;;18.71;100.00;101199.97;5058255;28;20073;-74
2023/08/29 09:56:41;;;;;;;3.17;2.60;;;;;;;18.64;100.00;101206.50;5058103;28;20054;-75
2023/08/29 09:59:12;;;;;;;3.63;2.45;;;;;;;18.61;100.00;101204.00;5068482;28;20130;-74
2023/08/29 10:01:40;;;;;;;2.97;2.20;;;;;;;18.62;100.00;101198.63;5062986;28;20028;-73
2023/08/29 10:04:10;;;;;;;2.38;2.17;;;;;;;18.83;100.00;101203.75;5065886;28;20028;-73
2023/08/29 10:06:37;;;;;;;2.92;2.45;;;;;;;19.02;100.00;101201.88;5056465;28;20035;-74
2023/08/29 10:09:03;;;;;;;5.30;3.10;;;;;;;19.24;100.00;101196.28;5062663;28;20032;-73
2023/08/29 10:11:29;;;;;;;2.90;2.47;;;;;;;19.45;100.00;101182.84;5071094;28;20059;-73
2023/08/29 10:13:55;;;;;;;3.63;2.60;;;;;;;19.75;100.00;101201.47;5065787;28;20025;-73
2023/08/29 10:16:21;;;;;;;3.10;2.53;;;;;;;19.81;100.00;101195.81;5061599;28;20025;-73
2023/08/29 10:18:49;;;;;;;4.40;2.78;;;;;;;19.88;100.00;101189.25;5066580;28;20099;-74
2023/08/29 10:21:16;;;;;;;3.10;1.80;;;;;;;19.92;100.00;101193.44;5061587;28;20369;-74
2023/08/29 10:23:43;;;;;;;3.47;1.90;;;;;;;19.97;100.00;101185.22;5070970;28;20020;-74
2023/08/29 10:26:09;;;;;;;4.60;1.80;;;;;;;19.98;100.00;101181.63;5064519;28;20032;-75
2023/08/29 10:28:35;;;;;;;3.72;1.70;;;;;;;19.97;100.00;101188.72;5063442;28;20115;-74
2023/08/29 10:31:03;;;;;;;3.75;1.80;;;;;;;19.80;100.00;101173.81;5066780;28;20436;-74
2023/08/29 10:33:29;;;;;;;1.80;1.65;;;;;;;19.84;100.00;101177.97;5056401;28;20084;-74
2023/08/29 10:35:54;;;;;;;3.38;1.70;;;;;;;19.84;100.00;101180.63;5062907;28;20033;-73
2023/08/29 10:38:19;;;;;;;2.05;1.55;;;;;;;19.86;100.00;101170.81;5058814;28;20024;-74
2023/08/29 10:40:46;;;;;;;4.13;1.90;;;;;;;19.95;100.00;101171.25;5064232;28;20024;-74
2023/08/29 10:43:29;;;;;;;1.98;1.63;;;;;;;20.10;100.00;101180.94;5052777;28;20035;-75
2023/08/29 10:45:56;;;;;;;;;;;;;;;20.28;100.00;101174.56;5064959;28;20035;-74
2023/08/29 10:48:41;;;;;;;4.32;1.60;;;;;;;20.27;100.00;101179.94;5071021;28;20362;-76
2023/08/29 10:51:08;;;;;;;3.40;1.88;;;;;;;20.30;100.00;101177.13;5067456;28;20040;-75
2023/08/29 10:53:43;;;;;;;3.38;2.13;;;;;;;20.35;100.00;101167.97;5060307;28;20229;-74
2023/08/29 10:56:09;;;;;;;2.88;2.00;;;;;;;20.40;100.00;101167.69;5058571;28;20040;-74
2023/08/29 10:58:38;;;;;;;3.28;2.05;;;;;;;20.43;100.00;101161.38;5066568;28;20436;-74
2023/08/29 11:01:05;;;;;;;4.10;2.35;;;;;;;20.48;97.07;101157.50;5060488;28;20075;-73
2023/08/29 11:03:57;;;;;;;2.90;2.58;;;;;;;20.59;100.00;101159.53;5068887;28;20028;-76